Time;durP1;ratioP1;P1;durP2;ratioP2;P2;SDS_P1;SDS_P2;PMS_P1;PMS_P2;Temp;Humidity;BMP_temperature;BMP_pressure;BME280_temperature;BME280_humidity;BME280_pressure;Samples;Min_cycle;Max_cycle;Signal;HPM_P1;HPM_P2
2022/10/14 00:00:41;;;;;;;23.95;13.48;;;;;;;10.16;65.07;100299.68;1774276;80;20978;-45
2022/10/14 00:03:07;;;;;;;22.32;13.13;;;;;;;10.18;65.09;100302.03;1774024;80;21010;-45
2022/10/14 00:05:40;;;;;;;23.25;13.30;;;;;;;10.20;64.97;100299.80;1774063;80;21010;-44
2022/10/14 00:08:08;;;;;;;27.05;13.32;;;;;;;10.18;64.98;100303.39;1774293;80;21034;-44
2022/10/14 00:10:39;;;;;;;22.40;12.98;;;;;;;10.16;65.03;100294.27;1773886;80;21136;-44
2022/10/14 00:13:06;;;;;;;27.90;13.50;;;;;;;10.15;65.01;100298.06;1773702;80;21514;-44
2022/10/14 00:15:39;;;;;;;26.90;14.60;;;;;;;10.12;64.93;100295.23;1773935;80;20994;-44
2022/10/14 00:18:08;;;;;;;24.40;14.60;;;;;;;10.08;64.85;100294.29;1773786;80;20975;-45
2022/10/14 00:20:35;;;;;;;23.20;13.50;;;;;;;10.02;64.97;100290.43;1773947;80;21090;-44
2022/10/14 00:23:02;;;;;;;28.98;13.98;;;;;;;9.96;64.96;100285.01;1773766;80;21205;-44
2022/10/14 00:25:30;;;;;;;24.35;13.68;;;;;;;9.90;65.02;100289.04;1773633;80;20999;-44
2022/10/14 00:27:57;;;;;;;25.43;12.68;;;;;;;9.88;65.05;100288.56;1773938;80;20982;-44
2022/10/14 00:30:23;;;;;;;29.02;15.25;;;;;;;9.87;64.87;100284.30;1769117;80;21010;-45
2022/10/14 00:32:51;;;;;;;28.07;15.68;;;;;;;9.89;64.92;100289.36;1773772;80;21473;-44
2022/10/14 00:35:18;;;;;;;24.77;14.15;;;;;;;9.84;65.25;100279.52;1773727;80;23187;-45
2022/10/14 00:37:45;;;;;;;23.67;13.55;;;;;;;9.81;65.32;100282.91;1773766;80;21555;-45
2022/10/14 00:40:12;;;;;;;24.18;13.10;;;;;;;9.78;65.05;100279.48;1773785;80;20987;-45
2022/10/14 00:42:40;;;;;;;24.37;13.03;;;;;;;9.72;64.78;100274.06;1773726;80;20943;-45
2022/10/14 00:45:14;;;;;;;21.20;12.85;;;;;;;9.65;64.83;100275.14;1773929;80;21031;-44
2022/10/14 00:47:41;;;;;;;22.85;12.80;;;;;;;9.59;64.76;100274.55;1773261;80;21159;-44
2022/10/14 00:50:09;;;;;;;22.40;13.60;;;;;;;9.51;64.88;100278.67;1773632;80;21563;-45
2022/10/14 00:52:37;;;;;;;27.58;13.32;;;;;;;9.45;64.75;100276.72;1773878;80;20958;-44
2022/10/14 00:55:09;;;;;;;23.47;13.10;;;;;;;9.37;64.48;100284.34;1773863;80;20896;-44
2022/10/14 00:57:36;;;;;;;21.10;12.35;;;;;;;9.28;64.50;100283.61;1773708;80;21066;-44
2022/10/14 01:00:10;;;;;;;21.65;12.40;;;;;;;9.23;64.49;100278.95;1773866;80;21194;-45
2022/10/14 01:02:37;;;;;;;26.90;12.58;;;;;;;9.25;64.46;100283.45;1773893;80;21008;-45
2022/10/14 01:05:06;;;;;;;20.55;11.40;;;;;;;9.21;64.37;100275.20;1774079;80;20982;-45
2022/10/14 01:07:55;;;;;;;21.43;11.87;;;;;;;9.18;64.43;100269.11;1774202;80;20947;-45
2022/10/14 01:10:34;;;;;;;23.02;12.58;;;;;;;9.18;64.41;100269.67;1768965;80;21031;-44
2022/10/14 01:13:28;;;;;;;22.67;12.53;;;;;;;9.10;64.44;100273.44;1773695;80;21508;-44
2022/10/14 01:16:12;;;;;;;20.88;13.15;;;;;;;9.06;64.44;100269.80;1774009;80;20995;-44
2022/10/14 01:19:03;;;;;;;26.57;12.60;;;;;;;8.95;64.30;100269.97;1767911;80;21622;-44
2022/10/14 01:21:47;;;;;;;21.95;12.93;;;;;;;8.87;64.40;100268.08;1773303;80;21535;-44
2022/10/14 01:24:28;;;;;;;29.82;13.10;;;;;;;8.77;64.60;100269.79;1776893;80;21530;-44
2022/10/14 01:27:12;;;;;;;24.07;12.15;;;;;;;8.68;64.74;100259.58;1782467;80;21213;-44
2022/10/14 01:29:47;;;;;;;23.25;12.40;;;;;;;8.62;64.88;100268.97;1782450;80;20934;-45
2022/10/14 01:32:37;;;;;;;25.43;12.78;;;;;;;8.59;64.81;100266.93;1782692;80;20954;-44
2022/10/14 01:35:34;;;;;;;22.98;12.30;;;;;;;8.61;64.79;100268.21;1782729;80;21508;-44
2022/10/14 01:38:18;;;;;;;20.50;12.35;;;;;;;8.60;64.96;100263.12;1782560;80;21007;-44
2022/10/14 01:41:19;;;;;;;25.12;13.50;;;;;;;8.58;65.05;100262.63;1720167;80;21147;-44
2022/10/14 01:43:49;;;;;;;24.63;12.13;;;;;;;8.55;64.98;100260.59;1752231;80;21038;-45
2022/10/14 01:46:16;;;;;;;25.40;13.58;;;;;;;8.48;64.90;100262.98;1782855;80;20958;-44
2022/10/14 01:48:49;;;;;;;27.35;13.48;;;;;;;8.44;65.02;100263.40;1782538;80;21062;-44
2022/10/14 01:51:27;;;;;;;25.97;14.25;;;;;;;8.42;65.02;100258.89;1781318;80;20987;-44
2022/10/14 01:53:59;;;;;;;27.10;13.50;;;;;;;8.38;64.96;100258.72;1782783;80;21230;-44
2022/10/14 01:56:27;;;;;;;25.23;13.43;;;;;;;8.34;64.86;100265.89;1782240;80;20939;-44
2022/10/14 01:58:54;;;;;;;25.77;14.63;;;;;;;8.28;64.79;100261.73;1782697;80;20943;-44
2022/10/14 02:01:21;;;;;;;28.07;13.10;;;;;;;8.21;64.94;100259.55;1782550;80;20907;-44
2022/10/14 02:03:47;;;;;;;22.58;13.05;;;;;;;8.19;64.90;100257.72;1752455;80;21023;-44
2022/10/14 02:06:35;;;;;;;21.05;11.95;;;;;;;8.20;64.88;100257.95;1782567;80;21202;-44
2022/10/14 02:09:43;;;;;;;26.12;14.28;;;;;;;8.21;64.89;100261.45;1782534;80;21006;-44
2022/10/14 02:12:51;;;;;;;28.65;14.30;;;;;;;8.17;65.09;100257.27;1782870;80;20994;-44
2022/10/14 02:15:35;;;;;;;22.58;13.95;;;;;;;8.15;65.57;100257.33;1782869;80;21034;-44
2022/10/14 02:18:14;;;;;;;25.50;14.45;;;;;;;8.08;65.79;100251.09;1689474;80;21070;-45
2022/10/14 02:20:48;;;;;;;24.72;13.85;;;;;;;8.05;65.77;100249.56;1783397;80;21165;-45
2022/10/14 02:23:19;;;;;;;27.35;14.95;;;;;;;8.03;65.81;100246.41;1782871;80;20970;-44
2022/10/14 02:25:46;;;;;;;25.68;14.80;;;;;;;8.01;65.93;100245.92;1775234;80;20976;-44
2022/10/14 02:28:18;;;;;;;23.62;13.83;;;;;;;8.00;65.85;100249.17;1774116;80;22031;-44
2022/10/14 02:30:52;;;;;;;21.65;12.30;;;;;;;8.03;65.75;100258.00;1774380;80;21100;-44
2022/10/14 02:33:27;;;;;;;24.67;14.10;;;;;;;8.07;65.41;100256.80;1773981;80;21133;-44
2022/10/14 02:35:54;;;;;;;27.77;13.62;;;;;;;8.08;65.33;100257.84;1774338;80;20975;-44
2022/10/14 02:38:21;;;;;;;24.02;13.83;;;;;;;8.08;65.43;100255.14;1774245;80;20959;-44
2022/10/14 02:40:50;;;;;;;26.00;14.20;;;;;;;8.09;65.46;100254.00;1773787;80;21496;-44
2022/10/14 02:43:20;;;;;;;24.45;14.07;;;;;;;8.09;65.54;100249.95;1773917;80;21051;-44
2022/10/14 02:45:47;;;;;;;24.25;14.00;;;;;;;8.09;65.75;100253.20;1773901;80;21161;-44
2022/10/14 02:48:13;;;;;;;23.15;14.05;;;;;;;8.06;65.90;100247.90;1773814;80;20919;-44
2022/10/14 02:50:41;;;;;;;21.95;12.93;;;;;;;8.03;66.06;100249.91;1774061;80;20991;-44
2022/10/14 02:53:08;;;;;;;21.37;13.13;;;;;;;8.02;66.12;100253.71;1773966;80;21516;-44
2022/10/14 02:55:36;;;;;;;23.12;13.48;;;;;;;8.05;66.05;100252.27;1750454;80;21046;-44
2022/10/14 02:58:03;;;;;;;24.82;13.15;;;;;;;8.11;65.94;100250.44;1773792;80;23077;-44
2022/10/14 03:00:30;;;;;;;21.73;13.45;;;;;;;8.17;65.99;100248.36;1773676;80;21041;-44
2022/10/14 03:02:58;;;;;;;19.87;13.03;;;;;;;8.19;65.97;100255.02;1773833;80;21018;-44
2022/10/14 03:05:25;;;;;;;19.27;13.90;;;;;;;8.21;66.00;100244.70;1773784;80;21524;-44
2022/10/14 03:07:53;;;;;;;21.50;13.22;;;;;;;8.22;65.90;100248.19;1774135;80;21580;-44
2022/10/14 03:10:20;;;;;;;22.80;13.30;;;;;;;8.21;65.82;100245.25;1773915;80;22049;-44
2022/10/14 03:12:48;;;;;;;21.07;13.25;;;;;;;8.18;65.75;100245.91;1773757;80;20923;-44
2022/10/14 03:15:16;;;;;;;26.27;13.53;;;;;;;8.15;65.71;100246.52;1772697;80;21051;-44
2022/10/14 03:17:43;;;;;;;25.97;13.83;;;;;;;8.12;65.75;100239.88;1773736;80;21607;-44
2022/10/14 03:20:12;;;;;;;23.80;13.95;;;;;;;8.11;65.81;100245.03;1772838;81;21020;-44
2022/10/14 03:22:41;;;;;;;21.68;13.38;;;;;;;8.13;65.82;100245.48;1772769;80;21117;-44
2022/10/14 03:25:09;;;;;;;24.27;13.83;;;;;;;8.18;65.68;100245.32;1784308;79;21020;-44
2022/10/14 03:27:43;;;;;;;24.32;14.03;;;;;;;8.23;65.57;100243.00;1797740;79;21018;-44
2022/10/14 03:30:12;;;;;;;21.48;13.22;;;;;;;8.24;65.60;100244.04;1798143;79;20931;-44
2022/10/14 03:32:41;;;;;;;24.52;13.88;;;;;;;8.23;65.50;100247.05;1797666;79;21523;-44
2022/10/14 03:35:21;;;;;;;28.12;15.18;;;;;;;8.22;65.53;100242.23;1797758;79;21062;-45
2022/10/14 03:37:52;;;;;;;27.58;15.10;;;;;;;8.20;65.56;100240.95;1797975;79;20967;-44
2022/10/14 03:40:18;;;;;;;22.95;14.20;;;;;;;8.19;65.68;100240.16;1797983;79;20924;-44
2022/10/14 03:42:45;;;;;;;27.02;15.35;;;;;;;8.18;65.70;100243.97;1797932;79;20943;-44
2022/10/14 03:45:11;;;;;;;27.50;14.45;;;;;;;8.16;65.71;100242.16;1797893;79;21039;-44
2022/10/14 03:47:41;;;;;;;24.80;13.00;;;;;;;8.15;65.71;100242.47;1798155;79;21561;-44
2022/10/14 03:50:09;;;;;;;26.35;12.78;;;;;;;8.16;65.77;100240.81;1797843;79;21011;-44
2022/10/14 03:52:42;;;;;;;21.05;13.65;;;;;;;8.21;65.78;100237.94;1798005;79;20959;-44
2022/10/14 03:55:14;;;;;;;24.45;13.58;;;;;;;8.27;65.73;100239.36;1798130;79;21537;-44
2022/10/14 03:57:41;;;;;;;23.62;14.83;;;;;;;8.27;65.74;100239.36;1798523;79;21090;-44
2022/10/14 04:00:11;;;;;;;22.35;14.13;;;;;;;8.29;65.72;100238.49;1798240;79;21750;-44
2022/10/14 04:02:41;;;;;;;24.77;13.78;;;;;;;8.31;65.71;100236.03;1798395;79;21039;-44
2022/10/14 04:05:11;;;;;;;24.52;14.05;;;;;;;8.30;65.63;100239.30;1798197;79;20975;-44
2022/10/14 04:07:40;;;;;;;26.00;13.45;;;;;;;8.27;65.51;100235.31;1798313;79;21050;-44
2022/10/14 04:10:08;;;;;;;25.23;13.98;;;;;;;8.24;65.56;100236.48;1798327;79;21008;-44
2022/10/14 04:12:39;;;;;;;25.92;14.83;;;;;;;8.21;65.66;100236.59;1798080;79;23102;-44
2022/10/14 04:15:09;;;;;;;21.65;12.78;;;;;;;8.17;65.67;100241.05;1797913;79;21529;-44
2022/10/14 04:17:39;;;;;;;20.50;12.20;;;;;;;8.19;65.68;100239.36;1797989;79;21055;-44
2022/10/14 04:20:09;;;;;;;24.65;13.50;;;;;;;8.23;65.71;100239.74;1798132;79;21102;-44
2022/10/14 04:22:38;;;;;;;24.57;12.93;;;;;;;8.26;66.12;100241.02;1795451;79;21055;-44
2022/10/14 04:25:07;;;;;;;22.27;12.88;;;;;;;8.24;66.62;100249.44;1790412;79;21221;-44
2022/10/14 04:27:34;;;;;;;21.10;13.20;;;;;;;8.27;66.80;100244.77;1783673;80;20976;-44
2022/10/14 04:30:04;;;;;;;20.00;12.23;;;;;;;8.29;66.87;100235.80;1783350;79;21056;-44
2022/10/14 04:32:33;;;;;;;26.37;12.82;;;;;;;8.31;66.88;100244.14;1783431;79;21541;-44
2022/10/14 04:35:01;;;;;;;28.80;13.30;;;;;;;8.30;66.92;100244.70;1783630;80;21546;-44
2022/10/14 04:37:29;;;;;;;19.32;12.45;;;;;;;8.31;66.95;100250.34;1783473;80;21957;-44
2022/10/14 04:40:05;;;;;;;21.55;12.20;;;;;;;8.37;67.01;100243.66;1783284;80;20976;-44
2022/10/14 04:42:32;;;;;;;25.82;13.75;;;;;;;8.48;67.06;100242.72;1783746;80;21034;-44
2022/10/14 04:45:03;;;;;;;25.70;14.15;;;;;;;8.58;67.00;100243.72;1783382;80;21058;-44
2022/10/14 04:47:32;;;;;;;22.85;14.80;;;;;;;8.62;66.89;100245.45;1783801;79;21032;-44
2022/10/14 04:50:00;;;;;;;23.55;13.78;;;;;;;8.67;66.96;100248.52;1783498;80;21133;-44
2022/10/14 04:52:29;;;;;;;25.72;14.43;;;;;;;8.73;67.07;100248.03;1778407;79;21466;-44
2022/10/14 04:54:57;;;;;;;20.52;13.83;;;;;;;8.79;67.27;100247.29;1783175;80;21039;-44
2022/10/14 04:57:30;;;;;;;23.35;14.63;;;;;;;8.83;67.40;100244.16;1783646;79;21043;-44
2022/10/14 04:59:57;;;;;;;26.77;14.18;;;;;;;8.86;67.56;100250.27;1783635;80;21000;-44
2022/10/14 05:02:38;;;;;;;23.18;13.80;;;;;;;8.92;67.33;100253.02;1783495;79;21088;-44
2022/10/14 05:05:07;;;;;;;21.68;13.90;;;;;;;9.01;67.39;100250.27;1783554;80;20991;-44
2022/10/14 05:07:36;;;;;;;24.18;15.03;;;;;;;9.10;67.51;100251.80;1783643;80;20979;-44
2022/10/14 05:10:08;;;;;;;25.57;14.20;;;;;;;9.16;67.68;100249.14;1783273;79;21103;-44
2022/10/14 05:12:37;;;;;;;23.67;14.95;;;;;;;9.21;67.74;100251.42;1783576;80;21044;-44
2022/10/14 05:15:06;;;;;;;19.27;14.10;;;;;;;9.26;67.83;100253.94;1783343;80;21742;-44
2022/10/14 05:17:43;;;;;;;22.62;14.33;;;;;;;9.29;67.84;100247.88;1783296;79;20948;-44
2022/10/14 05:20:09;;;;;;;24.93;13.53;;;;;;;9.32;67.85;100243.16;1783630;79;20979;-44
2022/10/14 05:22:38;;;;;;;24.47;12.60;;;;;;;9.40;67.63;100250.41;1783941;79;21036;-44
2022/10/14 05:25:06;;;;;;;27.05;13.50;;;;;;;9.48;67.36;100252.28;1785610;79;21068;-44
2022/10/14 05:27:33;;;;;;;23.10;13.53;;;;;;;9.58;67.11;100256.71;1797905;79;21129;-44
2022/10/14 05:30:01;;;;;;;29.37;14.55;;;;;;;9.64;66.96;100257.87;1797894;79;20979;-44
2022/10/14 05:32:29;;;;;;;26.82;14.25;;;;;;;9.69;66.89;100254.96;1797920;79;21055;-44
2022/10/14 05:34:58;;;;;;;24.77;14.50;;;;;;;9.72;66.95;100259.17;1797855;79;21046;-44
2022/10/14 05:37:26;;;;;;;26.25;15.03;;;;;;;9.76;66.99;100257.94;1797873;79;21565;-44
2022/10/14 05:39:54;;;;;;;28.07;15.28;;;;;;;9.77;67.07;100257.62;1798118;79;21222;-44
2022/10/14 05:42:23;;;;;;;23.75;13.70;;;;;;;9.81;67.11;100265.30;1797983;79;21039;-44
2022/10/14 05:44:52;;;;;;;30.20;13.83;;;;;;;9.86;66.96;100261.59;1798453;79;20975;-44
2022/10/14 05:47:21;;;;;;;20.75;13.20;;;;;;;9.95;66.93;100260.39;1798100;79;20979;-44
2022/10/14 05:49:49;;;;;;;20.85;13.85;;;;;;;10.03;67.06;100267.64;1798451;79;21565;-44
2022/10/14 05:52:17;;;;;;;25.27;14.83;;;;;;;10.09;67.16;100266.88;1798208;79;23112;-44
2022/10/14 05:54:44;;;;;;;25.27;14.90;;;;;;;10.18;67.12;100266.81;1798265;79;20971;-44
2022/10/14 05:57:12;;;;;;;24.47;13.80;;;;;;;10.22;67.09;100269.88;1798279;79;20948;-44
2022/10/14 05:59:40;;;;;;;24.82;14.23;;;;;;;10.27;67.00;100270.22;1798249;79;21026;-44
2022/10/14 06:02:09;;;;;;;26.90;14.95;;;;;;;10.31;66.99;100275.98;1797980;79;20951;-44
2022/10/14 06:04:39;;;;;;;22.32;13.15;;;;;;;10.35;67.03;100276.13;1797926;79;21577;-44
2022/10/14 06:07:06;;;;;;;20.30;12.88;;;;;;;10.41;67.08;100274.20;1798030;79;23059;-44
2022/10/14 06:09:35;;;;;;;24.25;13.45;;;;;;;10.53;67.05;100274.81;1797944;79;20999;-44
2022/10/14 06:12:03;;;;;;;28.15;15.10;;;;;;;10.62;67.05;100271.42;1797951;79;21098;-44
2022/10/14 06:14:30;;;;;;;26.00;13.85;;;;;;;10.70;67.01;100277.30;1798061;79;21027;-44
2022/10/14 06:16:57;;;;;;;23.52;13.88;;;;;;;10.76;66.93;100277.31;1797965;79;23116;-44
2022/10/14 06:19:25;;;;;;;23.92;13.32;;;;;;;10.81;66.76;100279.81;1797879;79;20943;-44
2022/10/14 06:21:55;;;;;;;23.77;13.65;;;;;;;10.88;66.76;100279.26;1798121;79;21878;-44
2022/10/14 06:24:22;;;;;;;25.40;13.40;;;;;;;10.95;66.65;100284.89;1808014;79;21497;-44
2022/10/14 06:26:49;;;;;;;23.70;14.07;;;;;;;10.99;66.61;100285.03;1804394;79;21470;-44
2022/10/14 06:29:16;;;;;;;28.20;13.32;;;;;;;11.06;66.58;100284.67;1797269;79;21089;-44
2022/10/14 06:31:43;;;;;;;23.18;13.93;;;;;;;11.16;66.39;100291.57;1792055;79;21000;-44
2022/10/14 06:34:10;;;;;;;24.40;13.53;;;;;;;11.24;66.32;100281.15;1800006;79;20925;-44
2022/10/14 06:36:38;;;;;;;22.98;12.65;;;;;;;11.29;66.26;100285.78;1797740;78;21003;-44
2022/10/14 06:39:05;;;;;;;27.80;14.35;;;;;;;11.36;66.09;100284.42;1800092;79;20969;-44
2022/10/14 06:41:32;;;;;;;22.85;12.35;;;;;;;11.40;65.95;100279.33;1799914;78;21325;-44
2022/10/14 06:44:00;;;;;;;23.55;12.20;;;;;;;11.46;65.97;100286.67;1787774;78;20969;-44
2022/10/14 06:46:27;;;;;;;24.57;11.90;;;;;;;11.51;65.78;100285.08;1777759;80;20957;-44
2022/10/14 06:48:54;;;;;;;22.37;12.05;;;;;;;11.55;65.44;100285.97;1778022;80;21031;-44
2022/10/14 06:51:21;;;;;;;20.92;10.20;;;;;;;11.56;65.01;100288.35;1778076;80;21000;-44
2022/10/14 06:53:47;;;;;;;23.07;11.40;;;;;;;11.64;65.19;100283.91;1778124;80;21129;-44
2022/10/14 06:56:16;;;;;;;21.68;11.20;;;;;;;11.76;65.16;100279.84;1778056;80;21461;-44
2022/10/14 06:58:43;;;;;;;20.45;10.55;;;;;;;11.89;64.83;100283.30;1786726;79;21072;-41
2022/10/14 07:01:09;;;;;;;19.77;10.40;;;;;;;11.97;64.69;100274.99;1799092;79;21569;-41
2022/10/14 07:03:38;;;;;;;22.10;10.32;;;;;;;12.06;64.21;100280.27;1800364;79;21037;-41
2022/10/14 07:06:06;;;;;;;19.30;9.70;;;;;;;12.15;64.22;100278.22;1799990;79;20922;-41
2022/10/14 07:08:33;;;;;;;17.67;9.05;;;;;;;12.23;63.76;100279.98;1800095;79;20961;-41
2022/10/14 07:10:59;;;;;;;20.72;9.60;;;;;;;12.32;63.20;100281.97;1800008;79;20922;-41
2022/10/14 07:13:27;;;;;;;19.60;9.43;;;;;;;12.38;63.02;100272.98;1799946;79;20977;-41
2022/10/14 07:15:53;;;;;;;17.35;9.43;;;;;;;12.42;62.68;100270.58;1800180;79;21486;-41
2022/10/14 07:18:20;;;;;;;21.10;10.43;;;;;;;12.44;62.89;100271.00;1799947;79;21209;-41
2022/10/14 07:20:48;;;;;;;20.62;9.83;;;;;;;12.45;61.89;100271.23;1799939;78;20997;-41
2022/10/14 07:23:16;;;;;;;18.55;9.35;;;;;;;12.43;61.58;100269.45;1799913;79;20930;-41
2022/10/14 07:25:43;;;;;;;21.87;9.30;;;;;;;12.45;62.13;100266.36;1799909;79;21602;-41
2022/10/14 07:28:10;;;;;;;18.15;9.33;;;;;;;12.53;61.99;100270.29;1800113;79;21417;-41
2022/10/14 07:30:38;;;;;;;17.17;8.30;;;;;;;12.62;61.95;100264.11;1799919;79;21250;-41
2022/10/14 07:33:05;;;;;;;17.25;7.85;;;;;;;12.75;61.60;100268.09;1800040;79;20945;-41
2022/10/14 07:35:32;;;;;;;20.25;8.80;;;;;;;12.87;60.85;100261.20;1799958;79;21017;-41
2022/10/14 07:37:59;;;;;;;19.90;9.60;;;;;;;13.01;61.43;100269.70;1794739;79;21504;-41
2022/10/14 07:40:26;;;;;;;19.27;9.18;;;;;;;13.15;61.17;100267.34;1783640;79;21573;-41
2022/10/14 07:42:53;;;;;;;17.65;8.80;;;;;;;13.28;60.69;100270.73;1774885;80;21184;-41
2022/10/14 07:45:20;;;;;;;20.52;8.58;;;;;;;13.38;60.58;100270.97;1780214;79;20928;-41
2022/10/14 07:47:48;;;;;;;18.42;8.03;;;;;;;13.49;59.92;100271.20;1799737;79;21465;-41
2022/10/14 07:50:16;;;;;;;16.85;8.75;;;;;;;13.57;59.48;100263.96;1800027;79;20882;-41
2022/10/14 07:52:43;;;;;;;18.10;8.48;;;;;;;13.63;59.06;100269.35;1779223;79;21021;-41
2022/10/14 07:55:11;;;;;;;21.48;9.50;;;;;;;13.66;58.66;100263.17;1776013;80;23095;-41
2022/10/14 07:57:39;;;;;;;18.90;9.35;;;;;;;13.70;58.62;100270.87;1776151;80;22136;-41
2022/10/14 08:00:09;;;;;;;15.83;8.13;;;;;;;13.72;58.57;100265.27;1772414;80;21084;-41
2022/10/14 08:02:42;;;;;;;18.05;8.38;;;;;;;13.75;58.07;100260.45;1745454;82;20949;-41
2022/10/14 08:05:11;;;;;;;18.55;7.05;;;;;;;13.78;58.01;100264.42;1767907;81;21677;-41
2022/10/14 08:07:38;;;;;;;16.17;7.37;;;;;;;13.80;57.71;100261.53;1768451;81;21147;-41
2022/10/14 08:10:06;;;;;;;17.17;8.03;;;;;;;13.82;57.46;100265.27;1759837;80;21073;-41
2022/10/14 08:12:33;;;;;;;16.93;7.42;;;;;;;13.83;57.18;100261.41;1743621;81;20956;-41
2022/10/14 08:15:00;;;;;;;16.95;7.85;;;;;;;13.84;57.18;100266.50;1739618;81;21541;-41
2022/10/14 08:17:28;;;;;;;16.23;8.25;;;;;;;13.87;57.05;100264.41;1744585;81;20925;-41
2022/10/14 08:19:55;;;;;;;20.32;8.45;;;;;;;13.92;57.18;100264.70;1744113;82;21170;-41
2022/10/14 08:22:23;;;;;;;20.92;9.23;;;;;;;13.97;57.38;100261.69;1743958;82;21612;-41
2022/10/14 08:24:50;;;;;;;19.80;9.65;;;;;;;14.05;57.24;100266.69;1744525;81;21538;-41
2022/10/14 08:27:18;;;;;;;19.85;9.70;;;;;;;14.12;56.98;100264.90;1742942;81;20962;-41
2022/10/14 08:29:45;;;;;;;18.60;8.80;;;;;;;14.19;56.78;100262.30;1760103;81;21084;-41
2022/10/14 08:32:13;;;;;;;18.48;9.30;;;;;;;14.25;56.36;100265.52;1759985;81;23138;-41
2022/10/14 08:34:41;;;;;;;16.60;9.28;;;;;;;14.28;56.26;100264.20;1760047;81;21036;-41
2022/10/14 08:37:10;;;;;;;20.37;10.18;;;;;;;14.30;56.32;100255.09;1760129;81;20890;-41
2022/10/14 08:39:39;;;;;;;22.95;10.88;;;;;;;14.37;56.70;100261.30;1760124;81;21012;-41
2022/10/14 08:42:33;;;;;;;22.10;9.85;;;;;;;14.44;56.40;100260.62;1760123;80;21068;-41
2022/10/14 08:45:10;;;;;;;22.45;9.08;;;;;;;14.52;56.25;100255.52;1760312;81;21511;-41
2022/10/14 08:47:40;;;;;;;20.20;10.38;;;;;;;14.60;55.88;100250.38;1760113;81;21029;-41
2022/10/14 08:50:23;;;;;;;20.62;9.98;;;;;;;14.68;55.73;100247.41;1760214;81;20986;-41
2022/10/14 08:53:00;;;;;;;17.50;9.55;;;;;;;14.74;55.73;100253.34;1746532;81;21045;-42
2022/10/14 08:55:55;;;;;;;19.48;9.33;;;;;;;14.78;55.42;100248.73;1760215;80;21033;-41
2022/10/14 08:58:35;;;;;;;15.23;8.73;;;;;;;14.83;55.37;100253.87;1760239;80;21132;-41
2022/10/14 09:01:14;;;;;;;;;;;;;;;14.89;54.86;100251.05;1742823;81;20934;-41
2022/10/14 09:03:41;;;;;;;14.70;7.87;;;;;;;14.93;54.44;100253.27;1754440;81;20160;-42
2022/10/14 09:06:26;;;;;;;16.40;8.98;;;;;;;14.87;54.75;100248.47;1760296;80;20938;-41
2022/10/14 09:09:06;;;;;;;17.57;8.60;;;;;;;14.93;54.54;100247.80;1753694;81;20997;-42
2022/10/14 09:11:38;;;;;;;18.92;8.95;;;;;;;14.96;54.20;100248.42;1699030;82;21248;-41
2022/10/14 09:14:08;;;;;;;20.75;10.43;;;;;;;14.97;54.04;100249.21;1746364;81;21386;-41
2022/10/14 09:16:38;;;;;;;20.17;8.85;;;;;;;14.99;54.31;100255.90;1760119;81;20992;-41
2022/10/14 09:19:27;;;;;;;23.98;8.60;;;;;;;15.06;54.33;100249.16;1760371;81;21490;-41
2022/10/14 09:21:55;;;;;;;15.50;7.47;;;;;;;15.18;54.02;100255.80;1760101;80;21078;-41
2022/10/14 09:24:25;;;;;;;14.47;6.90;;;;;;;15.29;53.41;100251.86;1759840;81;23140;-41
2022/10/14 09:26:57;;;;;;;19.05;7.12;;;;;;;15.40;53.09;100250.03;1754686;80;21768;-42
2022/10/14 09:29:37;;;;;;;16.17;7.70;;;;;;;15.45;53.03;100249.72;1743129;82;21039;-41
2022/10/14 09:32:07;;;;;;;16.20;7.55;;;;;;;15.47;52.79;100249.36;1714979;83;21510;-45
2022/10/14 09:34:42;;;;;;;18.48;7.40;;;;;;;15.43;52.07;100247.16;1714953;82;21507;-45
2022/10/14 09:37:24;;;;;;;16.27;7.05;;;;;;;15.36;52.33;100243.73;1714603;83;23156;-45
2022/10/14 09:41:54;;;;;;;13.08;6.25;;;;;;;15.44;52.15;100237.20;1810231;78;22735;-44
2022/10/14 09:44:24;;;;;;;16.67;6.78;;;;;;;15.41;52.04;100241.27;1791886;79;20976;-45
2022/10/14 09:46:58;;;;;;;19.00;6.62;;;;;;;15.47;51.69;100238.42;1816915;79;21146;-45
2022/10/14 09:49:36;;;;;;;18.35;6.90;;;;;;;15.53;52.07;100244.60;1813632;79;20956;-45
2022/10/14 09:52:03;;;;;;;14.33;6.83;;;;;;;15.67;52.28;100235.78;1777729;79;21019;-45
2022/10/14 09:54:31;;;;;;;20.00;6.87;;;;;;;15.83;51.71;100233.62;1808978;79;21013;-45
2022/10/14 09:57:07;;;;;;;19.57;6.55;;;;;;;15.92;51.24;100228.67;1816600;79;21463;-45
2022/10/14 09:59:59;;;;;;;13.22;6.45;;;;;;;15.96;51.06;100234.95;1784520;80;20964;-45
2022/10/14 10:02:41;;;;;;;12.30;6.65;;;;;;;16.08;50.92;100231.95;1784306;80;21012;-45
2022/10/14 10:05:28;;;;;;;14.10;6.40;;;;;;;16.29;50.47;100227.86;1784618;80;21470;-45
2022/10/14 10:08:15;;;;;;;12.40;6.60;;;;;;;16.51;49.59;100218.66;1790621;79;21580;-45
2022/10/14 10:11:03;;;;;;;11.93;5.92;;;;;;;16.63;49.13;100224.48;1796161;79;21664;-45
2022/10/14 10:13:43;;;;;;;11.50;6.00;;;;;;;16.63;48.87;100228.00;1790857;79;21467;-45
2022/10/14 10:16:19;;;;;;;9.60;5.37;;;;;;;16.66;48.84;100226.44;1816650;78;20976;-42
2022/10/14 10:18:48;;;;;;;13.72;5.37;;;;;;;16.75;48.70;100225.56;1816953;79;21016;-42
2022/10/14 10:21:25;;;;;;;11.12;5.70;;;;;;;16.84;48.29;100225.44;1816657;78;23570;-42
2022/10/14 10:24:01;;;;;;;13.05;5.70;;;;;;;16.90;47.79;100222.53;1807695;78;20974;-42
2022/10/14 10:26:31;;;;;;;12.68;5.40;;;;;;;16.89;47.74;100223.69;1796859;79;21824;-42
2022/10/14 10:29:04;;;;;;;11.60;5.25;;;;;;;16.80;47.52;100220.50;1799193;79;20936;-42
2022/10/14 10:31:56;;;;;;;10.90;5.45;;;;;;;16.71;47.99;100218.67;1777760;80;21015;-42
2022/10/14 10:34:34;;;;;;;11.68;5.03;;;;;;;16.63;48.75;100219.79;1757366;80;21060;-42
2022/10/14 10:37:23;;;;;;;16.65;5.67;;;;;;;16.50;48.56;100213.80;1776579;80;21055;-42
2022/10/14 10:39:59;;;;;;;19.62;6.05;;;;;;;16.37;48.95;100213.06;1776295;80;21250;-42
2022/10/14 10:42:38;;;;;;;12.90;5.33;;;;;;;16.27;48.91;100221.96;1788417;80;21553;-42
2022/10/14 10:45:35;;;;;;;11.40;5.00;;;;;;;16.15;49.27;100212.09;1779476;80;20989;-42
2022/10/14 10:48:17;;;;;;;11.25;4.95;;;;;;;16.08;49.23;100213.37;1790407;80;20929;-42
2022/10/14 10:50:56;;;;;;;11.60;4.80;;;;;;;15.97;49.50;100213.87;1791102;80;21028;-42
2022/10/14 10:53:38;;;;;;;9.70;5.22;;;;;;;15.87;49.30;100213.96;1790151;80;21169;-42
2022/10/14 10:56:17;;;;;;;11.08;4.83;;;;;;;15.76;49.63;100211.67;1795438;79;21527;-42
2022/10/14 10:59:02;;;;;;;9.45;4.80;;;;;;;15.68;50.27;100205.93;1805726;79;20883;-42
2022/10/14 11:02:13;;;;;;;10.30;5.25;;;;;;;15.60;50.50;100212.45;1805527;79;21516;-42
2022/10/14 11:04:55;;;;;;;12.47;5.05;;;;;;;15.53;50.12;100210.44;1804157;79;21017;-41
2022/10/14 11:13:55;;;;;;;10.23;4.90;;;;;;;15.25;51.29;100204.55;1805904;79;21476;-42
2022/10/14 11:16:44;;;;;;;13.83;5.17;;;;;;;15.19;51.66;100202.75;1801848;78;20989;-41
2022/10/14 11:19:36;;;;;;;14.33;5.42;;;;;;;15.13;52.22;100195.23;1791251;80;21602;-42
2022/10/14 11:22:21;;;;;;;11.35;5.00;;;;;;;15.11;52.39;100200.27;1810030;78;21130;-42
2022/10/14 11:25:24;;;;;;;14.13;5.37;;;;;;;15.08;52.44;100193.61;1823004;78;20998;-42
2022/10/14 11:27:57;;;;;;;11.60;4.40;;;;;;;15.05;52.21;100192.99;1824663;78;20950;-42
2022/10/14 11:30:29;;;;;;;8.03;4.20;;;;;;;15.01;52.22;100193.49;1824365;78;21457;-42
2022/10/14 11:33:23;;;;;;;9.35;4.95;;;;;;;14.98;52.20;100192.87;1821678;78;21073;-42
2022/10/14 11:36:16;;;;;;;8.30;4.00;;;;;;;14.97;52.40;100188.56;1812078;78;21119;-42
2022/10/14 11:39:05;;;;;;;9.15;4.12;;;;;;;14.97;52.46;100185.05;1824650;78;21031;-41
2022/10/14 11:42:10;;;;;;;7.43;3.07;;;;;;;14.96;52.51;100187.59;1813532;78;21620;-44
2022/10/14 11:44:38;;;;;;;9.90;4.22;;;;;;;14.95;52.80;100186.80;1804106;79;21030;-45
2022/10/14 11:47:27;;;;;;;10.48;4.30;;;;;;;14.94;53.22;100183.06;1805554;79;21005;-44
2022/10/14 11:50:17;;;;;;;11.50;4.87;;;;;;;14.94;52.88;100185.22;1804918;79;21105;-44